Time;durP1;ratioP1;P1;durP2;ratioP2;P2;SDS_P1;SDS_P2;PMS_P1;PMS_P2;Temp;Humidity;BMP_temperature;BMP_pressure;BME280_temperature;BME280_humidity;BME280_pressure;Samples;Min_cycle;Max_cycle;Signal;HPM_P1;HPM_P2
2023/04/20 00:01:30;;;;;;;2.95;1.90;;;;;;;13.88;62.64;98312.75;5033355;28;20079;-77
2023/04/20 00:03:55;;;;;;;2.70;1.73;;;;;;;13.89;62.30;98317.84;5015758;28;20045;-76
2023/04/20 00:06:21;;;;;;;3.47;2.13;;;;;;;13.89;62.38;98319.66;4999376;28;20045;-76
2023/04/20 00:08:46;;;;;;;5.78;1.98;;;;;;;13.87;62.16;98314.53;4984048;28;20102;-76
2023/04/20 00:11:12;;;;;;;2.63;1.65;;;;;;;13.84;62.26;98309.59;4983280;28;20033;-76
2023/04/20 00:13:37;;;;;;;2.40;1.80;;;;;;;13.82;62.04;98311.56;5000050;28;20037;-76
2023/04/20 00:16:03;;;;;;;3.33;1.90;;;;;;;13.83;62.06;98307.94;4983902;28;20037;-76
2023/04/20 00:18:28;;;;;;;2.80;1.65;;;;;;;13.78;62.11;98296.25;4999048;28;20040;-76
2023/04/20 00:20:54;;;;;;;3.88;1.63;;;;;;;13.76;61.84;98291.16;4983231;28;20437;-76
2023/04/20 00:23:19;;;;;;;2.38;1.50;;;;;;;13.80;61.74;98302.16;5015952;28;20065;-77
2023/04/20 00:25:45;;;;;;;1.98;1.40;;;;;;;13.78;61.55;98294.44;4999209;28;20664;-77
2023/04/20 00:28:10;;;;;;;2.65;1.60;;;;;;;13.79;61.93;98301.34;5033884;28;20476;-77
2023/04/20 00:30:36;;;;;;;2.85;1.70;;;;;;;13.75;61.70;98286.88;5015966;28;20084;-77
2023/04/20 00:33:01;;;;;;;3.90;1.63;;;;;;;13.79;61.88;98298.72;5015976;28;20033;-78
2023/04/20 00:35:27;;;;;;;2.00;1.50;;;;;;;13.81;61.68;98307.25;5015750;28;20408;-77
2023/04/20 00:37:52;;;;;;;2.17;1.70;;;;;;;13.79;61.95;98296.09;5033086;28;20022;-78
2023/04/20 00:40:18;;;;;;;2.97;1.60;;;;;;;13.77;61.87;98299.84;5014629;28;20030;-77
2023/04/20 00:42:43;;;;;;;2.40;1.52;;;;;;;13.77;61.83;98300.66;4998917;28;20033;-77
2023/04/20 00:45:09;;;;;;;3.53;1.70;;;;;;;13.74;61.62;98293.91;4998777;28;20056;-78
2023/04/20 00:47:35;;;;;;;3.00;1.60;;;;;;;13.75;61.36;98297.38;4998836;28;20504;-77
2023/04/20 00:50:00;;;;;;;3.80;1.35;;;;;;;13.72;61.62;98287.97;4999212;28;20084;-77
2023/04/20 00:52:25;;;;;;;3.45;1.70;;;;;;;13.71;61.30;98283.72;4999224;28;20034;-77
2023/04/20 00:54:51;;;;;;;3.20;1.50;;;;;;;13.73;61.24;98281.78;5032883;28;20060;-77
2023/04/20 00:57:17;;;;;;;2.67;1.70;;;;;;;13.75;61.42;98289.50;5015556;28;20025;-77
2023/04/20 00:59:43;;;;;;;1.80;1.50;;;;;;;13.75;61.28;98284.25;4999344;28;20048;-77
2023/04/20 01:02:08;;;;;;;3.90;1.77;;;;;;;13.75;61.35;98281.63;5015050;28;20448;-77
2023/04/20 01:04:38;;;;;;;3.65;1.90;;;;;;;13.74;61.32;98274.72;4997921;28;20124;-77
2023/04/20 01:07:04;;;;;;;2.20;1.70;;;;;;;13.71;61.20;98278.47;5000453;28;20086;-77
2023/04/20 01:09:30;;;;;;;3.05;1.52;;;;;;;13.72;61.05;98280.09;5016192;28;20025;-76
2023/04/20 01:11:55;;;;;;;2.00;1.58;;;;;;;13.71;61.19;98278.47;4999472;28;20037;-76
2023/04/20 01:14:21;;;;;;;3.45;1.60;;;;;;;13.72;61.27;98282.72;4999756;28;20072;-76
2023/04/20 01:16:48;;;;;;;4.65;1.90;;;;;;;13.69;61.48;98280.41;5014921;28;20060;-76
2023/04/20 01:19:14;;;;;;;2.20;1.63;;;;;;;13.70;61.11;98287.31;4982921;28;20033;-76
2023/04/20 01:21:39;;;;;;;2.13;1.75;;;;;;;13.69;60.91;98285.66;4999157;28;20072;-76
2023/04/20 01:24:05;;;;;;;3.55;1.52;;;;;;;13.66;61.20;98280.72;5015501;28;20488;-76
2023/04/20 01:26:31;;;;;;;2.13;1.63;;;;;;;13.66;60.97;98287.75;4983037;28;20059;-77
2023/04/20 01:28:57;;;;;;;3.67;1.83;;;;;;;13.66;61.17;98285.97;5015310;28;20408;-78
2023/04/20 01:31:23;;;;;;;3.97;1.80;;;;;;;13.59;61.04;98286.72;4999309;28;20370;-78
2023/04/20 01:33:48;;;;;;;2.22;1.50;;;;;;;13.63;61.05;98288.88;4998606;28;20068;-78
2023/04/20 01:36:14;;;;;;;2.63;1.50;;;;;;;13.63;61.11;98280.19;4982619;28;20033;-79
2023/04/20 01:38:40;;;;;;;2.95;1.80;;;;;;;13.67;61.13;98292.03;5015582;28;20040;-79
2023/04/20 01:41:06;;;;;;;2.50;1.73;;;;;;;13.60;61.06;98281.31;4998894;28;20030;-79
2023/04/20 01:43:32;;;;;;;3.17;1.63;;;;;;;13.63;61.12;98282.81;4982198;28;20045;-79
2023/04/20 01:45:58;;;;;;;4.05;1.60;;;;;;;13.62;60.87;98289.03;5015221;28;20456;-78
2023/04/20 01:48:24;;;;;;;2.67;1.65;;;;;;;13.63;61.14;98286.25;5014955;28;20125;-75
2023/04/20 01:50:50;;;;;;;2.78;1.50;;;;;;;13.62;60.92;98286.41;4998841;28;20104;-82
2023/04/20 01:53:16;;;;;;;2.20;1.50;;;;;;;13.61;60.98;98282.94;4998160;28;20038;-78
2023/04/20 01:55:41;;;;;;;3.22;1.55;;;;;;;13.61;61.01;98277.69;5032496;28;20045;-78
2023/04/20 01:58:07;;;;;;;2.80;1.77;;;;;;;13.59;60.94;98277.03;4982006;28;20042;-80
2023/04/20 02:00:32;;;;;;;2.78;1.60;;;;;;;13.59;60.89;98278.84;4998527;28;20488;-80
2023/04/20 02:02:58;;;;;;;2.95;1.50;;;;;;;13.54;61.00;98281.91;5032542;28;20056;-80
2023/04/20 02:05:24;;;;;;;2.80;1.60;;;;;;;13.52;61.02;98271.56;4997818;28;20034;-80
2023/04/20 02:07:50;;;;;;;2.55;1.60;;;;;;;13.55;60.94;98279.13;4997691;28;20029;-79
2023/04/20 02:10:15;;;;;;;4.85;1.85;;;;;;;13.55;60.96;98276.50;5014744;28;20117;-79
2023/04/20 02:12:41;;;;;;;3.58;1.75;;;;;;;13.54;61.22;98280.09;4997288;28;20045;-79
2023/04/20 02:15:08;;;;;;;3.83;1.77;;;;;;;13.52;61.32;98276.81;5014588;28;20058;-78
2023/04/20 02:17:35;;;;;;;3.00;1.75;;;;;;;13.52;61.16;98276.81;4998189;28;20026;-78
2023/04/20 02:20:01;;;;;;;2.10;1.60;;;;;;;13.49;61.19;98268.38;4998230;28;20060;-78
2023/04/20 02:22:26;;;;;;;2.15;1.70;;;;;;;13.51;61.16;98269.91;4998603;28;20103;-78
2023/04/20 02:24:52;;;;;;;3.33;1.80;;;;;;;13.45;61.31;98262.63;4981960;28;20496;-78
2023/04/20 02:27:17;;;;;;;3.72;1.75;;;;;;;13.45;61.25;98259.19;4998152;28;20045;-78
2023/04/20 02:29:42;;;;;;;3.60;2.03;;;;;;;13.49;61.10;98273.63;4998140;28;20034;-76
2023/04/20 02:32:08;;;;;;;2.47;1.90;;;;;;;13.48;61.26;98278.06;4997811;28;20061;-79
2023/04/20 02:34:33;;;;;;;4.85;1.65;;;;;;;13.44;61.21;98270.63;5014454;28;20068;-82
2023/04/20 02:36:59;;;;;;;3.25;1.80;;;;;;;13.48;61.14;98277.25;4998343;28;20599;-77
2023/04/20 02:39:25;;;;;;;5.80;1.70;;;;;;;13.48;60.96;98274.63;5032150;28;20469;-76
2023/04/20 02:41:50;;;;;;;2.80;1.85;;;;;;;13.48;61.26;98278.06;5031309;28;20040;-77
2023/04/20 02:44:16;;;;;;;2.72;1.83;;;;;;;13.48;61.21;98274.63;5013475;28;20484;-78
2023/04/20 02:46:41;;;;;;;3.90;2.10;;;;;;;13.45;61.04;98269.66;5013544;28;20037;-77
2023/04/20 02:49:07;;;;;;;3.28;2.30;;;;;;;13.42;61.07;98259.47;5030665;28;20040;-77
2023/04/20 02:51:32;;;;;;;2.80;1.90;;;;;;;13.44;61.05;98274.09;5013851;28;20037;-79
2023/04/20 02:53:58;;;;;;;3.55;2.10;;;;;;;13.43;61.17;98269.81;5031707;28;20374;-78
2023/04/20 02:56:23;;;;;;;5.97;2.25;;;;;;;13.41;61.11;98263.91;5031823;28;20033;-78
2023/04/20 02:58:50;;;;;;;3.45;1.90;;;;;;;13.44;61.00;98270.63;4981815;28;20029;-77
2023/04/20 03:01:16;;;;;;;2.90;2.17;;;;;;;13.41;61.04;98263.91;5013997;28;20488;-77
2023/04/20 03:03:42;;;;;;;3.65;2.35;;;;;;;13.41;61.16;98271.75;4998282;28;20068;-76
2023/04/20 03:06:07;;;;;;;3.55;2.33;;;;;;;13.39;61.26;98271.91;5014156;28;20033;-77
2023/04/20 03:08:32;;;;;;;3.08;1.92;;;;;;;13.36;61.03;98263.50;4998002;28;20147;-76
2023/04/20 03:10:58;;;;;;;6.55;2.92;;;;;;;13.36;61.19;98263.50;5014175;28;20052;-77
2023/04/20 03:13:23;;;;;;;3.88;2.53;;;;;;;13.33;61.10;98254.16;4998198;28;20034;-76
2023/04/20 03:15:49;;;;;;;3.08;2.38;;;;;;;13.37;61.25;98265.97;4997651;28;20508;-76
2023/04/20 03:18:14;;;;;;;3.88;2.38;;;;;;;13.37;61.07;98270.41;4996899;28;20107;-76
2023/04/20 03:20:40;;;;;;;3.80;2.70;;;;;;;13.37;61.00;98270.41;4994398;28;20065;-77
2023/04/20 03:23:05;;;;;;;4.50;2.38;;;;;;;13.37;61.05;98281.69;4993852;28;20125;-76
2023/04/20 03:25:31;;;;;;;3.58;2.30;;;;;;;13.34;61.23;98273.31;5011521;28;20034;-77
2023/04/20 03:27:56;;;;;;;4.47;2.60;;;;;;;13.36;61.21;98277.44;5010891;28;20073;-76
2023/04/20 03:30:22;;;;;;;3.63;2.72;;;;;;;13.32;61.00;98265.56;4981809;28;20481;-76
2023/04/20 03:32:47;;;;;;;5.60;2.70;;;;;;;13.36;60.66;98271.34;4985704;28;20096;-78
2023/04/20 03:35:13;;;;;;;5.45;2.63;;;;;;;13.33;60.85;98274.28;4978347;28;20049;-79
2023/04/20 03:37:38;;;;;;;2.30;2.00;;;;;;;13.42;65.67;98281.25;4961769;28;20030;-77
2023/04/20 03:40:07;;;;;;;6.70;2.17;;;;;;;13.55;69.55;98270.41;4993942;28;20038;-76
2023/04/20 03:42:32;;;;;;;4.60;2.20;;;;;;;13.64;67.63;98276.59;4962238;28;20215;-75
2023/04/20 03:44:58;;;;;;;5.82;2.20;;;;;;;13.88;71.86;98276.84;4977042;28;20062;-73
2023/04/20 03:47:23;;;;;;;7.05;2.22;;;;;;;13.85;68.20;98265.81;4978101;28;20472;-73
2023/04/20 03:49:49;;;;;;;3.53;1.70;;;;;;;13.97;70.40;98271.69;4977862;28;20069;-73
2023/04/20 03:52:15;;;;;;;4.88;2.25;;;;;;;14.17;70.54;98275.78;4977617;28;20026;-72
2023/04/20 03:54:40;;;;;;;10.65;2.03;;;;;;;14.50;68.98;98262.91;4977700;28;20157;-71
2023/04/20 03:57:06;;;;;;;10.38;2.17;;;;;;;14.70;65.76;98260.09;4977553;28;20069;-72
2023/04/20 03:59:31;;;;;;;5.80;2.20;;;;;;;14.69;64.52;98264.56;4977675;28;20042;-74
2023/04/20 04:01:57;;;;;;;4.93;2.38;;;;;;;14.86;63.00;98254.94;4976982;28;20038;-74
2023/04/20 04:04:23;;;;;;;3.22;2.30;;;;;;;15.22;61.40;98269.75;4977650;28;20044;-77
2023/04/20 04:06:48;;;;;;;3.85;2.33;;;;;;;15.61;60.10;98271.81;4961334;28;20030;-77
2023/04/20 04:09:14;;;;;;;6.28;2.45;;;;;;;15.53;59.05;98264.75;4993037;28;20042;-77
2023/04/20 04:11:39;;;;;;;2.60;2.15;;;;;;;15.36;59.42;98269.94;4975318;28;20026;-77
2023/04/20 04:14:05;;;;;;;3.88;2.63;;;;;;;15.27;59.11;98281.41;4975018;28;20030;-77
2023/04/20 04:16:31;;;;;;;4.07;2.88;;;;;;;15.14;58.65;98276.59;4992486;28;20112;-77
2023/04/20 04:18:56;;;;;;;4.78;2.83;;;;;;;15.11;58.52;98287.44;4976519;28;20034;-77
2023/04/20 04:21:22;;;;;;;9.10;3.00;;;;;;;15.08;57.89;98289.56;5004615;28;20096;-76
2023/04/20 04:23:48;;;;;;;7.97;3.40;;;;;;;15.01;57.72;98287.56;5013012;28;20034;-77
2023/04/20 04:26:13;;;;;;;8.48;3.75;;;;;;;15.82;55.61;98285.41;5012046;28;20490;-77
2023/04/20 04:28:39;;;;;;;6.25;3.40;;;;;;;16.95;52.95;98281.28;4979827;28;20482;-78
2023/04/20 04:31:06;;;;;;;12.75;3.78;;;;;;;16.48;53.28;98285.44;4995028;28;20430;-77
2023/04/20 04:33:33;;;;;;;4.82;3.30;;;;;;;16.40;53.53;98288.91;4996391;28;20133;-77
2023/04/20 04:35:59;;;;;;;11.38;3.53;;;;;;;16.35;53.20;98287.75;5012833;28;20049;-77
2023/04/20 04:38:25;;;;;;;5.93;3.17;;;;;;;16.41;52.97;98290.56;4995314;28;20657;-77
2023/04/20 04:40:51;;;;;;;5.03;3.30;;;;;;;17.43;50.56;98289.19;5012748;28;20029;-76
2023/04/20 04:43:18;;;;;;;8.15;3.22;;;;;;;18.94;47.30;98283.34;5012748;28;20029;-77
2023/04/20 04:45:44;;;;;;;5.22;3.58;;;;;;;19.61;45.43;98288.63;5010892;28;20069;-77
2023/04/20 04:48:10;;;;;;;7.47;3.92;;;;;;;19.32;46.07;98280.56;5013549;28;20464;-77
2023/04/20 04:50:37;;;;;;;9.15;4.00;;;;;;;18.92;46.47;98287.16;4994029;28;20104;-78
2023/04/20 04:53:02;;;;;;;6.35;4.10;;;;;;;18.74;46.75;98290.13;5012491;28;20499;-77
2023/04/20 04:55:28;;;;;;;8.65;4.10;;;;;;;18.63;46.79;98286.09;4995358;28;20046;-79
2023/04/20 04:57:53;;;;;;;9.05;4.55;;;;;;;18.52;47.04;98289.16;4995834;28;20029;-78
2023/04/20 05:00:19;;;;;;;12.55;4.40;;;;;;;18.41;46.87;98287.78;4996009;28;20091;-79
2023/04/20 05:02:44;;;;;;;10.18;5.30;;;;;;;18.90;46.03;98286.50;4980051;28;20030;-78
2023/04/20 05:05:10;;;;;;;10.88;4.75;;;;;;;20.32;42.74;98283.50;4995841;28;20524;-77
2023/04/20 05:07:37;;;;;;;8.35;4.45;;;;;;;21.88;39.89;98286.84;4995593;28;20029;-78
2023/04/20 05:10:03;;;;;;;12.95;4.35;;;;;;;23.22;37.47;98277.84;5011459;28;20465;-77
2023/04/20 05:12:29;;;;;;;14.48;4.53;;;;;;;24.41;35.70;98282.72;4995942;28;20037;-77
2023/04/20 05:14:54;;;;;;;8.82;3.60;;;;;;;25.43;33.73;98279.69;5011892;28;20045;-77
2023/04/20 05:17:21;;;;;;;8.70;4.15;;;;;;;26.45;31.64;98286.09;4979320;28;20045;-79
2023/04/20 05:19:46;;;;;;;12.45;3.55;;;;;;;27.32;29.82;98281.91;5012193;28;20084;-78
2023/04/20 05:22:14;;;;;;;5.75;3.25;;;;;;;28.14;28.80;98275.41;4995786;28;20080;-78
2023/04/20 05:24:41;;;;;;;8.15;3.50;;;;;;;28.81;28.35;98283.69;4979822;28;20121;-77
2023/04/20 05:27:08;;;;;;;10.20;3.65;;;;;;;29.49;27.17;98291.59;4995334;28;20493;-78
2023/04/20 05:29:33;;;;;;;13.35;3.40;;;;;;;30.07;25.92;98282.00;4995483;28;20034;-77
2023/04/20 05:31:59;;;;;;;13.07;3.05;;;;;;;30.65;26.00;98289.50;4978122;28;20030;-78
2023/04/20 05:34:24;;;;;;;9.95;3.35;;;;;;;31.10;25.44;98301.63;4994874;28;20030;-77
2023/04/20 05:36:50;;;;;;;7.97;3.10;;;;;;;31.48;24.47;98296.13;4995205;28;20042;-77
2023/04/20 05:39:17;;;;;;;9.13;2.90;;;;;;;31.85;24.33;98300.56;4994821;28;20511;-77
2023/04/20 05:41:42;;;;;;;10.82;2.97;;;;;;;32.18;23.72;98306.59;5010233;28;20481;-77
2023/04/20 05:44:08;;;;;;;7.03;2.80;;;;;;;32.43;21.92;98306.63;4978442;28;20026;-77
2023/04/20 05:46:33;;;;;;;8.93;2.80;;;;;;;32.74;22.07;98305.81;4977561;28;20041;-75
2023/04/20 05:48:59;;;;;;;8.65;2.78;;;;;;;32.90;21.19;98307.38;4977732;28;20053;-73
2023/04/20 05:51:27;;;;;;;8.63;2.35;;;;;;;32.89;21.95;98307.66;4981616;28;20030;-72
2023/04/20 05:53:53;;;;;;;33.85;2.30;;;;;;;32.93;24.76;98306.03;5012654;28;20061;-73
2023/04/20 05:56:19;;;;;;;15.05;2.30;;;;;;;32.94;24.03;98308.47;4979120;28;20034;-77
2023/04/20 05:58:44;;;;;;;11.63;2.17;;;;;;;33.04;24.61;98313.03;5011012;28;20025;-73
2023/04/20 06:01:10;;;;;;;10.13;2.20;;;;;;;33.04;25.26;98315.72;4994203;28;20053;-75
2023/04/20 06:03:35;;;;;;;21.45;2.08;;;;;;;33.09;25.21;98310.31;4977469;28;20033;-73
2023/04/20 06:06:01;;;;;;;15.27;2.03;;;;;;;33.11;24.77;98316.22;4978227;28;20088;-74
2023/04/20 06:08:26;;;;;;;6.95;1.80;;;;;;;33.09;26.02;98306.78;5011477;28;20037;-76
2023/04/20 06:10:55;;;;;;;16.15;2.28;;;;;;;33.07;25.57;98308.97;4994779;28;20053;-77
2023/04/20 06:13:20;;;;;;;15.95;3.42;;;;;;;32.61;22.29;98301.75;4995071;28;20050;-75
2023/04/20 06:15:46;;;;;;;11.05;3.97;;;;;;;32.24;21.41;98309.00;4995050;28;20031;-74
2023/04/20 06:18:11;;;;;;;6.50;3.55;;;;;;;31.88;20.99;98306.25;4995027;28;20410;-77
2023/04/20 06:20:38;;;;;;;7.82;3.20;;;;;;;31.76;21.83;98313.78;4994687;28;20089;-76
2023/04/20 06:23:05;;;;;;;12.63;3.97;;;;;;;31.62;21.04;98318.88;4995011;28;20032;-77
2023/04/20 06:25:32;;;;;;;13.30;4.10;;;;;;;31.39;21.48;98318.22;4994900;28;20477;-74
2023/04/20 06:27:57;;;;;;;14.75;3.90;;;;;;;30.99;21.04;98316.94;4995096;28;20026;-72
2023/04/20 06:30:23;;;;;;;13.52;5.25;;;;;;;30.47;22.19;98313.06;4995011;28;20041;-73
2023/04/20 06:32:48;;;;;;;18.33;7.20;;;;;;;30.34;21.82;98321.53;4994699;28;20042;-72
2023/04/20 06:35:14;;;;;;;17.85;7.57;;;;;;;29.49;22.82;98316.59;5011360;28;20116;-75
2023/04/20 06:37:40;;;;;;;20.95;7.75;;;;;;;29.22;23.03;98314.69;4994934;28;20128;-72
2023/04/20 06:40:09;;;;;;;22.48;7.40;;;;;;;28.30;23.42;98310.53;4994712;28;20026;-72
2023/04/20 06:42:35;;;;;;;15.98;6.28;;;;;;;28.22;24.68;98303.69;4994970;28;20405;-76
2023/04/20 06:45:00;;;;;;;15.25;6.80;;;;;;;28.60;24.29;98306.75;4994590;28;20069;-73
2023/04/20 06:47:30;;;;;;;13.65;6.18;;;;;;;28.37;24.32;98316.59;5011848;28;20143;-74
2023/04/20 06:49:58;;;;;;;21.67;6.50;;;;;;;27.83;25.60;98305.38;5011558;28;20528;-75
2023/04/20 06:52:24;;;;;;;14.40;6.57;;;;;;;28.16;24.57;98310.03;4978267;28;20092;-74
2023/04/20 06:54:49;;;;;;;13.50;5.68;;;;;;;28.46;24.22;98311.59;5012386;28;20034;-83
2023/04/20 06:57:15;;;;;;;11.77;5.30;;;;;;;28.77;24.88;98310.25;4996372;28;20033;-77
2023/04/20 06:59:40;;;;;;;16.05;5.55;;;;;;;29.01;24.32;98310.84;4996230;28;20037;-78
2023/04/20 07:02:06;;;;;;;11.82;5.55;;;;;;;29.12;25.15;98303.75;5012186;28;20033;-79
2023/04/20 07:04:31;;;;;;;15.00;5.40;;;;;;;28.79;24.38;98312.69;4998395;28;20064;-82
2023/04/20 07:06:57;;;;;;;10.95;5.10;;;;;;;28.92;24.58;98306.16;5015376;28;20038;-81
2023/04/20 07:09:23;;;;;;;12.95;4.97;;;;;;;28.98;26.05;98311.34;5017131;28;20061;-79
2023/04/20 07:11:49;;;;;;;12.45;4.57;;;;;;;28.93;23.41;98313.97;5015595;28;20041;-77
2023/04/20 07:14:14;;;;;;;10.82;4.72;;;;;;;28.56;23.36;98308.28;4998443;28;20476;-75
2023/04/20 07:16:40;;;;;;;12.52;5.05;;;;;;;28.52;23.94;98307.94;4998301;28;20065;-76
2023/04/20 07:19:06;;;;;;;17.10;5.20;;;;;;;28.60;24.50;98304.88;4998752;28;20065;-77
2023/04/20 07:21:32;;;;;;;12.00;5.07;;;;;;;28.80;23.83;98308.94;4997831;28;20045;-75
2023/04/20 07:23:57;;;;;;;16.10;4.78;;;;;;;29.07;23.31;98302.88;5014459;28;20022;-79
2023/04/20 07:26:24;;;;;;;15.38;4.78;;;;;;;29.21;22.26;98302.28;4998299;28;20124;-76
2023/04/20 07:28:50;;;;;;;9.32;4.40;;;;;;;29.38;21.56;98313.00;5014817;28;20108;-77
2023/04/20 07:31:16;;;;;;;8.45;4.00;;;;;;;29.55;22.29;98312.91;5014844;28;20121;-78
2023/04/20 07:33:42;;;;;;;7.68;3.78;;;;;;;29.67;21.53;98298.53;4982737;28;20036;-77
2023/04/20 07:36:08;;;;;;;13.80;3.80;;;;;;;29.54;20.81;98299.72;4998137;28;20026;-78
2023/04/20 07:38:33;;;;;;;13.57;4.22;;;;;;;28.88;22.28;98287.84;4981567;28;20029;-76
2023/04/20 07:41:00;;;;;;;11.05;4.13;;;;;;;29.28;22.89;98299.41;4999022;28;20112;-78
2023/04/20 07:43:26;;;;;;;14.27;4.28;;;;;;;29.34;22.19;98298.41;4983926;28;20077;-78
2023/04/20 07:45:52;;;;;;;12.25;4.10;;;;;;;28.54;22.33;98297.78;4998340;28;20497;-79
2023/04/20 07:48:19;;;;;;;7.53;4.13;;;;;;;28.40;22.11;98294.63;4982558;28;20034;-80
2023/04/20 07:50:45;;;;;;;14.43;5.32;;;;;;;27.49;23.71;98294.56;4997957;28;20022;-76
2023/04/20 07:53:10;;;;;;;11.43;4.93;;;;;;;27.09;24.91;98298.81;4998826;28;20045;-80
2023/04/20 07:55:36;;;;;;;21.52;5.63;;;;;;;26.70;25.08;98287.78;4998791;28;20466;-78
2023/04/20 07:58:01;;;;;;;11.80;5.13;;;;;;;26.28;25.19;98296.66;4998242;28;20030;-77
2023/04/20 08:00:27;;;;;;;10.57;4.22;;;;;;;26.14;26.13;98293.38;5014086;28;20056;-77
2023/04/20 08:02:53;;;;;;;14.27;4.30;;;;;;;24.90;25.55;98299.75;4999188;28;20026;-78
2023/04/20 08:05:18;;;;;;;9.55;4.22;;;;;;;24.68;26.87;98291.34;4996506;28;20049;-73
2023/04/20 08:07:44;;;;;;;8.63;4.28;;;;;;;24.30;26.85;98292.25;4997164;28;20034;-74
2023/04/20 08:10:10;;;;;;;8.23;4.07;;;;;;;24.05;26.87;98294.06;4981564;28;20052;-73
2023/04/20 08:12:36;;;;;;;7.60;4.20;;;;;;;24.01;27.61;98291.81;4981216;28;20049;-74
2023/04/20 08:15:05;;;;;;;11.32;4.00;;;;;;;23.97;28.55;98287.13;4996792;28;20041;-77
2023/04/20 08:17:31;;;;;;;6.63;3.88;;;;;;;24.12;27.69;98279.66;5014802;28;20127;-74
2023/04/20 08:19:56;;;;;;;5.30;3.03;;;;;;;24.23;27.19;98282.66;4996992;28;20030;-76
2023/04/20 08:22:25;;;;;;;7.13;3.60;;;;;;;25.14;25.92;98285.75;4997242;28;20154;-77
2023/04/20 08:24:52;;;;;;;6.82;3.58;;;;;;;25.28;26.57;98285.41;4983033;28;20037;-78
2023/04/20 08:27:22;;;;;;;4.00;3.15;;;;;;;25.14;25.35;98283.09;5010788;28;20022;-81
2023/04/20 08:29:47;;;;;;;5.05;3.20;;;;;;;25.86;24.42;98277.09;5005218;28;20456;-81
2023/04/20 08:32:17;;;;;;;4.43;3.45;;;;;;;26.58;24.77;98279.69;4962300;28;20169;-81
2023/04/20 08:34:43;;;;;;;9.32;3.47;;;;;;;26.72;24.98;98283.00;4998424;28;20049;-80
2023/04/20 08:37:09;;;;;;;8.00;3.47;;;;;;;26.49;25.46;98276.56;4962539;28;20030;-83
2023/04/20 08:39:35;;;;;;;10.27;3.85;;;;;;;26.52;25.15;98276.09;4980031;28;20034;-80
2023/04/20 08:42:01;;;;;;;8.15;4.13;;;;;;;26.89;25.26;98278.56;4962843;28;20026;-81
2023/04/20 08:44:26;;;;;;;8.02;3.95;;;;;;;27.92;24.54;98277.13;4966656;28;20120;-86
2023/04/20 08:46:53;;;;;;;6.28;3.80;;;;;;;28.50;23.74;98272.50;4969545;28;20034;-84
2023/04/20 08:49:18;;;;;;;8.82;3.83;;;;;;;28.36;24.06;98272.00;4965798;28;20177;-82
2023/04/20 08:51:45;;;;;;;7.90;3.60;;;;;;;29.13;23.21;98269.63;4963606;28;20034;-80
2023/04/20 08:54:10;;;;;;;6.00;3.70;;;;;;;28.79;23.35;98267.03;4963458;28;20041;-85
2023/04/20 08:56:41;;;;;;;8.65;3.67;;;;;;;28.91;22.80;98270.44;4962723;28;20034;-82
2023/04/20 08:59:11;;;;;;;12.25;3.30;;;;;;;29.39;22.75;98266.22;4978165;28;20034;-82
2023/04/20 09:01:38;;;;;;;6.63;3.42;;;;;;;29.15;23.07;98271.00;4978381;28;20509;-81
2023/04/20 09:04:17;;;;;;;5.30;2.97;;;;;;;28.94;23.47;98271.78;4978019;28;20038;-81
2023/04/20 09:06:50;;;;;;;7.07;2.88;;;;;;;28.69;23.65;98263.13;4977574;28;20042;-82
2023/04/20 09:09:20;;;;;;;4.45;3.03;;;;;;;28.43;24.16;98264.59;4977595;28;20026;-82
2023/04/20 09:11:46;;;;;;;4.50;2.80;;;;;;;28.18;24.24;98265.00;4993303;28;20477;-84
2023/04/20 09:14:14;;;;;;;11.73;3.30;;;;;;;27.98;24.47;98258.22;4993598;28;20026;-78
2023/04/20 09:17:00;;;;;;;11.10;3.30;;;;;;;27.70;25.31;98266.28;4976438;28;20506;-80
2023/04/20 09:19:28;;;;;;;5.18;2.95;;;;;;;27.96;24.96;98262.22;4993066;28;20023;-80
2023/04/20 09:21:55;;;;;;;4.35;2.90;;;;;;;28.36;24.88;98271.19;5008654;28;20046;-81
2023/04/20 09:24:32;;;;;;;9.10;3.10;;;;;;;27.98;25.63;98266.28;5011572;28;20109;-81
2023/04/20 09:27:00;;;;;;;5.60;3.00;;;;;;;27.80;26.15;98266.47;5011907;28;20040;-80
2023/04/20 09:29:26;;;;;;;5.65;3.10;;;;;;;27.62;26.54;98268.28;5014260;28;20026;-80
2023/04/20 09:31:52;;;;;;;7.18;3.13;;;;;;;27.52;26.76;98269.97;4997465;28;20520;-82
2023/04/20 09:34:20;;;;;;;6.20;2.90;;;;;;;27.36;26.01;98261.63;4980430;28;20026;-80
2023/04/20 09:36:50;;;;;;;5.85;3.10;;;;;;;27.24;26.28;98264.28;4980797;28;20044;-80
2023/04/20 09:39:17;;;;;;;6.82;2.97;;;;;;;27.12;26.46;98266.19;4999620;28;20478;-80
2023/04/20 09:41:43;;;;;;;5.03;3.13;;;;;;;26.97;26.74;98271.22;4997014;28;20093;-81
2023/04/20 09:44:09;;;;;;;5.47;3.33;;;;;;;26.78;27.33;98266.00;5013609;28;20117;-79
2023/04/20 09:46:37;;;;;;;6.75;3.20;;;;;;;26.87;27.14;98267.28;4997086;28;20084;-81
2023/04/20 09:49:04;;;;;;;5.85;3.40;;;;;;;27.03;27.32;98267.63;4981164;28;20600;-80
2023/04/20 09:51:31;;;;;;;3.97;3.00;;;;;;;27.40;26.92;98252.03;4995891;28;20034;-82
2023/04/20 09:54:00;;;;;;;7.68;2.85;;;;;;;27.47;26.91;98253.78;4995993;28;20041;-80
2023/04/20 09:56:28;;;;;;;5.18;2.97;;;;;;;27.52;26.64;98256.56;5012024;28;20038;-81
2023/04/20 09:58:58;;;;;;;;;;;;;;;27.24;27.54;98256.25;4996607;28;20104;-81
2023/04/20 10:01:23;;;;;;;13.43;3.30;;;;;;;27.45;27.21;98254.00;5012210;28;19913;-77
2023/04/20 10:03:50;;;;;;;5.35;3.03;;;;;;;27.79;26.73;98252.22;4995198;28;20042;-80
2023/04/20 10:06:27;;;;;;;4.50;3.20;;;;;;;27.95;26.51;98253.34;4995905;28;20033;-82
2023/04/20 10:09:19;;;;;;;4.07;3.20;;;;;;;28.09;26.67;98251.16;5013343;28;20038;-81
2023/04/20 10:11:44;;;;;;;6.50;3.05;;;;;;;27.98;26.58;98238.66;4996737;28;20037;-81
2023/04/20 10:14:31;;;;;;;5.53;2.97;;;;;;;27.59;27.62;98239.25;4983985;28;20081;-83
2023/04/20 10:17:07;;;;;;;6.35;2.95;;;;;;;27.43;27.85;98248.06;4997019;28;20034;-81
2023/04/20 10:19:37;;;;;;;4.82;3.20;;;;;;;27.17;27.53;98247.53;4996156;28;20420;-79
2023/04/20 10:22:31;;;;;;;5.93;3.30;;;;;;;26.84;28.38;98249.00;5012960;28;20445;-78
2023/04/20 10:24:58;;;;;;;7.43;3.25;;;;;;;26.59;28.41;98243.06;4958372;28;20039;-79
2023/04/20 10:27:24;;;;;;;4.43;3.05;;;;;;;26.30;28.37;98249.09;4957180;28;20187;-79
2023/04/20 10:29:51;;;;;;;8.23;3.40;;;;;;;26.00;28.58;98251.84;4958000;28;20053;-79
2023/04/20 10:32:27;;;;;;;5.32;3.22;;;;;;;25.66;29.15;98255.97;4956613;28;20077;-81
2023/04/20 10:35:09;;;;;;;7.15;3.42;;;;;;;25.29;30.04;98251.53;4956425;28;20429;-80
2023/04/20 10:37:46;;;;;;;4.03;3.20;;;;;;;24.94;30.27;98260.09;4972298;28;20062;-80
2023/04/20 10:40:15;;;;;;;5.22;3.42;;;;;;;24.65;30.82;98259.75;4946409;28;20052;-81
2023/04/20 10:42:43;;;;;;;6.65;3.60;;;;;;;24.38;31.37;98262.66;4961652;28;20066;-82
2023/04/20 10:45:10;;;;;;;7.32;3.47;;;;;;;24.14;32.02;98261.59;4944509;28;20050;-78
2023/04/20 10:47:36;;;;;;;5.95;3.75;;;;;;;23.92;32.57;98252.31;4975450;28;20494;-77
2023/04/20 10:50:09;;;;;;;5.70;3.60;;;;;;;23.72;32.99;98263.91;4944475;28;20172;-78
2023/04/20 10:52:36;;;;;;;5.97;4.07;;;;;;;23.54;33.63;98255.78;4974858;28;20038;-80
2023/04/20 10:55:03;;;;;;;5.70;3.87;;;;;;;23.42;33.95;98260.94;4951372;28;20084;-78
2023/04/20 10:57:28;;;;;;;6.35;4.10;;;;;;;23.31;34.19;98259.78;4998659;28;20045;-79
2023/04/20 10:59:54;;;;;;;8.57;3.97;;;;;;;23.20;34.24;98260.41;4998833;28;20038;-80
2023/04/20 11:02:20;;;;;;;6.40;4.13;;;;;;;23.09;34.20;98253.94;4998883;28;20412;-80
2023/04/20 11:04:45;;;;;;;6.47;3.85;;;;;;;22.97;34.21;98255.56;4998231;28;20547;-77
2023/04/20 11:07:12;;;;;;;6.13;4.18;;;;;;;22.92;34.27;98250.88;4998515;28;20046;-79
2023/04/20 11:09:38;;;;;;;5.78;3.80;;;;;;;22.85;34.57;98264.19;4999449;28;20485;-78
2023/04/20 11:12:06;;;;;;;6.10;4.00;;;;;;;22.81;34.69;98259.50;4997972;28;20105;-81
2023/04/20 11:14:34;;;;;;;6.53;3.90;;;;;;;22.78;34.84;98263.38;5014026;28;20049;-81
2023/04/20 11:17:01;;;;;;;10.10;4.30;;;;;;;22.73;34.86;98265.84;5014710;28;20042;-80
2023/04/20 11:19:30;;;;;;;10.18;4.30;;;;;;;22.72;34.60;98262.38;5017640;28;20084;-80
2023/04/20 11:22:03;;;;;;;9.60;4.43;;;;;;;22.71;34.92;98267.91;4998911;28;20050;-83
2023/04/20 11:24:32;;;;;;;11.77;4.75;;;;;;;22.69;34.62;98261.94;5015499;28;20030;-80
2023/04/20 11:27:00;;;;;;;8.30;4.35;;;;;;;22.66;34.41;98270.34;5000975;28;20647;-82
2023/04/20 11:29:36;;;;;;;;;;;;;;;22.70;34.33;98258.28;4982150;28;20030;-79